Airfield :
LOGIN :

Register | Disclaimer

   EN    FR    IT 

 










Legend :    VFR   Marginal VFR   IFR   Intensive IFR   Very Intensive IFR
Visi :
Ceiling :
>= 8 km
>= 3000ft
5 to 8 km
1000 to 3000 ft
1500m to 5 km
500 to 1000 ft
800 to 1500m
200 to 500 ft
< 800m
< 200 ft
Symbols :   Thunderstorms  Fog  Heavy snow  Heavy precipitations  Wind > 20 kt
SIGMETs :     Misc.  Thunderstorms  Icing  Turbulence  Mountain Waves  Volcanic Ashes







- Airport Elevation : 226 ft
- IATA code : BEX


EGUB - RAF Benson

CURRENT METAR :
  • 171420Z 24009KT CAVOK 24/13 Q1012 NOSIG RMK BLU BLU

EXPIRED METARs :
  • 171350Z 24009KT CAVOK 24/11 Q1013 NOSIG RMK BLU BLU
  • 171320Z 20007KT CAVOK 25/09 Q1013 NOSIG RMK BLU BLU
  • 171250Z 24006KT 9999 FEW048 BKN250 25/10 Q1013 NOSIG RMK BLU BLU
  • 171220Z 17006KT 9999 FEW047 BKN250 25/11 Q1013 NOSIG RMK BLU BLU
  • 171150Z 24006KT 9999 SCT045 SCT160 BKN200 24/11 Q1013 NOSIG RMK BLU BLU

TAF TAF EGUB
Valid from the 17 at 15:00 until the 18 at 09:00 UTC


171343Z 1715/1809 26009KT 9999 FEW045
BECMG 1801/1803 BKN015
TEMPO 1802/1807 BKN008
PROB40
TEMPO 1802/1807 4000 RADZ
BECMG 1807/1809 SCT025
ATIS : +44 1491-837766 (x7524)
No reported NOTAMs for that airfield.



MET'MAP, your aeronautical weather chart ! - Copyright ORBIFLY December 2007 - Disclaimer

ORBIFLY MET'MAP TEAM :

Programming & Development : Alexandra Zaïnal
Concept & Development : Baudouin d'Aumeries
Co-Development & Prog : Marc-Olivier Méhu
Technical & hardware support : Manuel Goepfert

Contact : metmap@orbifly.com




SOURCES & CREDITS :

   NOAA